sensor_id;sensor_type;location;lat;lon;timestamp;temperature;humidity
46364;DHT22;32071;49.036;9.344;2024-03-06T00:01:30;4.90;99.90
46364;DHT22;32071;49.036;9.344;2024-03-06T00:03:55;4.90;99.90
46364;DHT22;32071;49.036;9.344;2024-03-06T00:06:21;4.80;99.90
46364;DHT22;32071;49.036;9.344;2024-03-06T00:08:46;4.80;99.90
46364;DHT22;32071;49.036;9.344;2024-03-06T00:11:12;4.80;99.90
46364;DHT22;32071;49.036;9.344;2024-03-06T00:13:37;4.80;99.90
46364;DHT22;32071;49.036;9.344;2024-03-06T00:16:04;4.80;99.90
46364;DHT22;32071;49.036;9.344;2024-03-06T00:18:30;4.80;99.90
46364;DHT22;32071;49.036;9.344;2024-03-06T00:20:55;4.80;99.90
46364;DHT22;32071;49.036;9.344;2024-03-06T00:23:21;4.80;99.90
46364;DHT22;32071;49.036;9.344;2024-03-06T00:25:47;4.80;99.90
46364;DHT22;32071;49.036;9.344;2024-03-06T00:28:12;4.80;99.90
46364;DHT22;32071;49.036;9.344;2024-03-06T00:30:38;4.90;99.90
46364;DHT22;32071;49.036;9.344;2024-03-06T00:33:03;4.90;99.90
46364;DHT22;32071;49.036;9.344;2024-03-06T00:35:29;4.80;99.90
46364;DHT22;32071;49.036;9.344;2024-03-06T00:37:54;4.80;99.90
46364;DHT22;32071;49.036;9.344;2024-03-06T00:40:20;4.80;99.90
46364;DHT22;32071;49.036;9.344;2024-03-06T00:42:46;4.80;99.90
46364;DHT22;32071;49.036;9.344;2024-03-06T00:45:11;4.70;99.90
46364;DHT22;32071;49.036;9.344;2024-03-06T00:47:37;4.70;99.90
46364;DHT22;32071;49.036;9.344;2024-03-06T00:50:03;4.70;99.90
46364;DHT22;32071;49.036;9.344;2024-03-06T00:52:32;4.60;99.90
46364;DHT22;32071;49.036;9.344;2024-03-06T00:54:58;4.60;99.90
46364;DHT22;32071;49.036;9.344;2024-03-06T00:57:24;4.60;99.90
46364;DHT22;32071;49.036;9.344;2024-03-06T00:59:49;4.60;99.90
46364;DHT22;32071;49.036;9.344;2024-03-06T01:02:15;4.70;99.90
46364;DHT22;32071;49.036;9.344;2024-03-06T01:04:40;4.70;99.90
46364;DHT22;32071;49.036;9.344;2024-03-06T01:07:06;4.70;99.90
46364;DHT22;32071;49.036;9.344;2024-03-06T01:09:32;4.70;99.90
46364;DHT22;32071;49.036;9.344;2024-03-06T01:11:57;4.70;99.90
46364;DHT22;32071;49.036;9.344;2024-03-06T01:14:23;4.70;99.90
46364;DHT22;32071;49.036;9.344;2024-03-06T01:16:48;4.60;99.90
46364;DHT22;32071;49.036;9.344;2024-03-06T01:19:14;4.60;99.90
46364;DHT22;32071;49.036;9.344;2024-03-06T01:21:39;4.60;99.90
46364;DHT22;32071;49.036;9.344;2024-03-06T01:24:05;4.60;99.90
46364;DHT22;32071;49.036;9.344;2024-03-06T01:26:31;4.60;99.90
46364;DHT22;32071;49.036;9.344;2024-03-06T01:28:56;4.60;99.90
46364;DHT22;32071;49.036;9.344;2024-03-06T01:31:22;4.60;99.90
46364;DHT22;32071;49.036;9.344;2024-03-06T01:33:47;4.60;99.90
46364;DHT22;32071;49.036;9.344;2024-03-06T01:36:13;4.60;99.90
46364;DHT22;32071;49.036;9.344;2024-03-06T01:38:38;4.60;99.90
46364;DHT22;32071;49.036;9.344;2024-03-06T01:41:04;4.70;99.90
46364;DHT22;32071;49.036;9.344;2024-03-06T01:43:37;4.70;99.90
46364;DHT22;32071;49.036;9.344;2024-03-06T01:46:03;4.70;99.90
46364;DHT22;32071;49.036;9.344;2024-03-06T01:48:30;4.70;99.90
46364;DHT22;32071;49.036;9.344;2024-03-06T01:50:58;4.70;99.90
46364;DHT22;32071;49.036;9.344;2024-03-06T01:53:24;4.70;99.90
46364;DHT22;32071;49.036;9.344;2024-03-06T01:55:51;4.70;99.90
46364;DHT22;32071;49.036;9.344;2024-03-06T01:58:17;4.70;99.90
46364;DHT22;32071;49.036;9.344;2024-03-06T02:00:44;4.70;99.90
46364;DHT22;32071;49.036;9.344;2024-03-06T02:03:10;4.70;99.90
46364;DHT22;32071;49.036;9.344;2024-03-06T02:05:36;4.70;99.90
46364;DHT22;32071;49.036;9.344;2024-03-06T02:08:02;4.70;99.90
46364;DHT22;32071;49.036;9.344;2024-03-06T02:10:28;4.70;99.90
46364;DHT22;32071;49.036;9.344;2024-03-06T02:12:54;4.60;99.90
46364;DHT22;32071;49.036;9.344;2024-03-06T02:15:20;4.60;99.90
46364;DHT22;32071;49.036;9.344;2024-03-06T02:17:46;4.60;99.90
46364;DHT22;32071;49.036;9.344;2024-03-06T02:20:11;4.60;99.90
46364;DHT22;32071;49.036;9.344;2024-03-06T02:22:40;4.60;99.90
46364;DHT22;32071;49.036;9.344;2024-03-06T02:25:06;4.60;99.90
46364;DHT22;32071;49.036;9.344;2024-03-06T02:27:32;4.70;99.90
46364;DHT22;32071;49.036;9.344;2024-03-06T02:29:58;4.70;99.90
46364;DHT22;32071;49.036;9.344;2024-03-06T02:32:23;4.70;99.90
46364;DHT22;32071;49.036;9.344;2024-03-06T02:34:50;4.70;99.90
46364;DHT22;32071;49.036;9.344;2024-03-06T02:37:16;4.70;99.90
46364;DHT22;32071;49.036;9.344;2024-03-06T02:39:41;4.70;99.90
46364;DHT22;32071;49.036;9.344;2024-03-06T02:42:07;4.80;99.90
46364;DHT22;32071;49.036;9.344;2024-03-06T02:44:33;4.80;99.90
46364;DHT22;32071;49.036;9.344;2024-03-06T02:46:59;4.70;99.90
46364;DHT22;32071;49.036;9.344;2024-03-06T02:49:24;4.70;99.90
46364;DHT22;32071;49.036;9.344;2024-03-06T02:51:50;4.70;99.90
46364;DHT22;32071;49.036;9.344;2024-03-06T02:54:16;4.70;99.90
46364;DHT22;32071;49.036;9.344;2024-03-06T02:56:42;4.70;99.90
46364;DHT22;32071;49.036;9.344;2024-03-06T02:59:07;4.70;99.90
46364;DHT22;32071;49.036;9.344;2024-03-06T03:01:33;4.70;99.90
46364;DHT22;32071;49.036;9.344;2024-03-06T03:03:59;4.70;99.90
46364;DHT22;32071;49.036;9.344;2024-03-06T03:06:25;4.80;99.90
46364;DHT22;32071;49.036;9.344;2024-03-06T03:08:51;4.80;99.90
46364;DHT22;32071;49.036;9.344;2024-03-06T03:11:16;4.80;99.90
46364;DHT22;32071;49.036;9.344;2024-03-06T03:13:42;4.80;99.90
46364;DHT22;32071;49.036;9.344;2024-03-06T03:16:18;4.90;99.90
46364;DHT22;32071;49.036;9.344;2024-03-06T03:18:44;4.90;99.90
46364;DHT22;32071;49.036;9.344;2024-03-06T03:21:10;4.90;99.90
46364;DHT22;32071;49.036;9.344;2024-03-06T03:23:36;4.90;99.90
46364;DHT22;32071;49.036;9.344;2024-03-06T03:26:03;4.90;99.90
46364;DHT22;32071;49.036;9.344;2024-03-06T03:28:29;4.90;99.90
46364;DHT22;32071;49.036;9.344;2024-03-06T03:30:55;4.80;99.90
46364;DHT22;32071;49.036;9.344;2024-03-06T03:33:22;4.80;99.90
46364;DHT22;32071;49.036;9.344;2024-03-06T03:35:48;4.90;99.90
46364;DHT22;32071;49.036;9.344;2024-03-06T03:38:13;4.80;99.90
46364;DHT22;32071;49.036;9.344;2024-03-06T03:40:39;4.90;99.90
46364;DHT22;32071;49.036;9.344;2024-03-06T03:43:04;4.90;99.90
46364;DHT22;32071;49.036;9.344;2024-03-06T03:45:32;4.80;99.90
46364;DHT22;32071;49.036;9.344;2024-03-06T03:48:00;4.70;99.90
46364;DHT22;32071;49.036;9.344;2024-03-06T03:50:25;4.70;99.90
46364;DHT22;32071;49.036;9.344;2024-03-06T03:52:51;4.70;99.90
46364;DHT22;32071;49.036;9.344;2024-03-06T03:55:17;4.70;99.90
46364;DHT22;32071;49.036;9.344;2024-03-06T03:57:42;4.70;99.90
46364;DHT22;32071;49.036;9.344;2024-03-06T04:00:08;4.80;99.90
46364;DHT22;32071;49.036;9.344;2024-03-06T04:02:39;4.80;99.90
46364;DHT22;32071;49.036;9.344;2024-03-06T04:05:05;4.80;99.90
46364;DHT22;32071;49.036;9.344;2024-03-06T04:07:31;4.80;99.90
46364;DHT22;32071;49.036;9.344;2024-03-06T04:09:56;4.80;99.90
46364;DHT22;32071;49.036;9.344;2024-03-06T04:12:23;4.90;99.90
46364;DHT22;32071;49.036;9.344;2024-03-06T04:14:49;4.90;99.90
46364;DHT22;32071;49.036;9.344;2024-03-06T04:17:14;4.90;99.90
46364;DHT22;32071;49.036;9.344;2024-03-06T04:19:40;5.00;99.90
46364;DHT22;32071;49.036;9.344;2024-03-06T04:22:06;4.90;99.90
46364;DHT22;32071;49.036;9.344;2024-03-06T04:24:31;4.90;99.90
46364;DHT22;32071;49.036;9.344;2024-03-06T04:26:57;5.00;99.90
46364;DHT22;32071;49.036;9.344;2024-03-06T04:29:22;5.00;99.90
46364;DHT22;32071;49.036;9.344;2024-03-06T04:31:48;5.00;99.90
46364;DHT22;32071;49.036;9.344;2024-03-06T04:34:13;5.10;99.90
46364;DHT22;32071;49.036;9.344;2024-03-06T04:36:39;5.10;99.90
46364;DHT22;32071;49.036;9.344;2024-03-06T04:39:04;5.10;99.90
46364;DHT22;32071;49.036;9.344;2024-03-06T04:41:33;5.10;99.90
46364;DHT22;32071;49.036;9.344;2024-03-06T04:43:59;5.10;99.90
46364;DHT22;32071;49.036;9.344;2024-03-06T04:46:26;5.10;99.90
46364;DHT22;32071;49.036;9.344;2024-03-06T04:48:52;5.10;99.90
46364;DHT22;32071;49.036;9.344;2024-03-06T04:51:17;5.10;99.90
46364;DHT22;32071;49.036;9.344;2024-03-06T04:53:45;5.10;99.90
46364;DHT22;32071;49.036;9.344;2024-03-06T04:56:11;5.10;99.90
46364;DHT22;32071;49.036;9.344;2024-03-06T04:58:36;5.10;99.90
46364;DHT22;32071;49.036;9.344;2024-03-06T05:01:02;5.10;99.90
46364;DHT22;32071;49.036;9.344;2024-03-06T05:03:29;5.10;99.90
46364;DHT22;32071;49.036;9.344;2024-03-06T05:05:54;5.10;99.90
46364;DHT22;32071;49.036;9.344;2024-03-06T05:08:20;5.10;99.90
46364;DHT22;32071;49.036;9.344;2024-03-06T05:10:46;5.10;99.90
46364;DHT22;32071;49.036;9.344;2024-03-06T05:13:12;5.10;99.90
46364;DHT22;32071;49.036;9.344;2024-03-06T05:15:37;5.10;99.90
46364;DHT22;32071;49.036;9.344;2024-03-06T05:18:05;5.10;99.90
46364;DHT22;32071;49.036;9.344;2024-03-06T05:20:30;5.10;99.90
46364;DHT22;32071;49.036;9.344;2024-03-06T05:22:59;5.20;99.90
46364;DHT22;32071;49.036;9.344;2024-03-06T05:25:24;5.20;99.90
46364;DHT22;32071;49.036;9.344;2024-03-06T05:27:50;5.20;99.90
46364;DHT22;32071;49.036;9.344;2024-03-06T05:30:16;5.20;99.90
46364;DHT22;32071;49.036;9.344;2024-03-06T05:32:41;5.10;99.90
46364;DHT22;32071;49.036;9.344;2024-03-06T05:35:07;5.10;99.90
46364;DHT22;32071;49.036;9.344;2024-03-06T05:37:35;5.10;99.90
46364;DHT22;32071;49.036;9.344;2024-03-06T05:40:01;5.10;99.90
46364;DHT22;32071;49.036;9.344;2024-03-06T05:42:30;5.10;99.90
46364;DHT22;32071;49.036;9.344;2024-03-06T05:44:56;5.20;99.90
46364;DHT22;32071;49.036;9.344;2024-03-06T05:47:26;5.20;99.90
46364;DHT22;32071;49.036;9.344;2024-03-06T05:49:52;5.20;99.90
46364;DHT22;32071;49.036;9.344;2024-03-06T05:52:17;5.20;99.90
46364;DHT22;32071;49.036;9.344;2024-03-06T05:54:43;5.20;99.90
46364;DHT22;32071;49.036;9.344;2024-03-06T05:57:09;5.30;99.90
46364;DHT22;32071;49.036;9.344;2024-03-06T05:59:34;5.30;99.90
46364;DHT22;32071;49.036;9.344;2024-03-06T06:02:00;5.30;99.90
46364;DHT22;32071;49.036;9.344;2024-03-06T06:04:26;5.20;99.90
46364;DHT22;32071;49.036;9.344;2024-03-06T06:06:51;5.20;99.90
46364;DHT22;32071;49.036;9.344;2024-03-06T06:09:17;5.30;99.90
46364;DHT22;32071;49.036;9.344;2024-03-06T06:11:44;5.30;99.90
46364;DHT22;32071;49.036;9.344;2024-03-06T06:14:10;5.30;99.90
46364;DHT22;32071;49.036;9.344;2024-03-06T06:16:37;5.30;99.90
46364;DHT22;32071;49.036;9.344;2024-03-06T06:19:02;5.40;99.90
46364;DHT22;32071;49.036;9.344;2024-03-06T06:21:29;5.40;99.90
46364;DHT22;32071;49.036;9.344;2024-03-06T06:23:55;5.40;99.90
46364;DHT22;32071;49.036;9.344;2024-03-06T06:26:21;5.40;99.90
46364;DHT22;32071;49.036;9.344;2024-03-06T06:28:47;5.50;99.90
46364;DHT22;32071;49.036;9.344;2024-03-06T06:31:12;5.50;99.90
46364;DHT22;32071;49.036;9.344;2024-03-06T06:33:38;5.50;99.90
46364;DHT22;32071;49.036;9.344;2024-03-06T06:36:03;5.60;99.90
46364;DHT22;32071;49.036;9.344;2024-03-06T06:38:30;5.60;99.90
46364;DHT22;32071;49.036;9.344;2024-03-06T06:40:56;5.60;99.90
46364;DHT22;32071;49.036;9.344;2024-03-06T06:43:21;5.60;99.90
46364;DHT22;32071;49.036;9.344;2024-03-06T06:45:47;5.60;99.90
46364;DHT22;32071;49.036;9.344;2024-03-06T06:48:13;5.60;99.90
46364;DHT22;32071;49.036;9.344;2024-03-06T06:50:38;5.70;99.90
46364;DHT22;32071;49.036;9.344;2024-03-06T06:53:04;5.70;99.90
46364;DHT22;32071;49.036;9.344;2024-03-06T06:55:30;5.70;99.90
46364;DHT22;32071;49.036;9.344;2024-03-06T06:57:55;5.80;99.90
46364;DHT22;32071;49.036;9.344;2024-03-06T07:00:21;5.80;99.90
46364;DHT22;32071;49.036;9.344;2024-03-06T07:02:48;5.80;99.90
46364;DHT22;32071;49.036;9.344;2024-03-06T07:05:14;5.80;99.90
46364;DHT22;32071;49.036;9.344;2024-03-06T07:07:40;5.90;99.90
46364;DHT22;32071;49.036;9.344;2024-03-06T07:10:06;5.90;99.90
46364;DHT22;32071;49.036;9.344;2024-03-06T07:12:32;5.90;99.90
46364;DHT22;32071;49.036;9.344;2024-03-06T07:14:58;6.00;99.90
46364;DHT22;32071;49.036;9.344;2024-03-06T07:17:28;6.00;99.90
46364;DHT22;32071;49.036;9.344;2024-03-06T07:19:54;6.00;99.90
46364;DHT22;32071;49.036;9.344;2024-03-06T07:22:19;6.00;99.90
46364;DHT22;32071;49.036;9.344;2024-03-06T07:24:45;6.10;99.90
46364;DHT22;32071;49.036;9.344;2024-03-06T07:27:10;6.20;99.90
46364;DHT22;32071;49.036;9.344;2024-03-06T07:29:37;6.20;99.90
46364;DHT22;32071;49.036;9.344;2024-03-06T07:32:02;6.30;99.90
46364;DHT22;32071;49.036;9.344;2024-03-06T07:34:30;6.20;99.90
46364;DHT22;32071;49.036;9.344;2024-03-06T07:36:56;6.20;99.90
46364;DHT22;32071;49.036;9.344;2024-03-06T07:39:23;6.30;99.90
46364;DHT22;32071;49.036;9.344;2024-03-06T07:41:49;6.30;99.90
46364;DHT22;32071;49.036;9.344;2024-03-06T07:44:15;6.30;99.90
46364;DHT22;32071;49.036;9.344;2024-03-06T07:46:40;6.40;99.90
46364;DHT22;32071;49.036;9.344;2024-03-06T07:49:06;6.40;99.90
46364;DHT22;32071;49.036;9.344;2024-03-06T07:51:32;6.50;99.90
46364;DHT22;32071;49.036;9.344;2024-03-06T07:53:58;6.50;99.90
46364;DHT22;32071;49.036;9.344;2024-03-06T07:56:27;6.40;99.90
46364;DHT22;32071;49.036;9.344;2024-03-06T07:58:52;6.40;99.90
46364;DHT22;32071;49.036;9.344;2024-03-06T08:01:19;6.40;99.90
46364;DHT22;32071;49.036;9.344;2024-03-06T08:03:46;6.50;99.90
46364;DHT22;32071;49.036;9.344;2024-03-06T08:06:11;6.50;99.90
46364;DHT22;32071;49.036;9.344;2024-03-06T08:08:43;6.50;99.90
46364;DHT22;32071;49.036;9.344;2024-03-06T08:11:14;6.50;99.90
46364;DHT22;32071;49.036;9.344;2024-03-06T08:13:40;6.50;99.90
46364;DHT22;32071;49.036;9.344;2024-03-06T08:16:07;6.50;99.90
46364;DHT22;32071;49.036;9.344;2024-03-06T08:18:34;6.40;99.90
46364;DHT22;32071;49.036;9.344;2024-03-06T08:21:01;6.40;99.90
46364;DHT22;32071;49.036;9.344;2024-03-06T08:23:26;6.40;99.90
46364;DHT22;32071;49.036;9.344;2024-03-06T08:25:52;6.40;99.90
46364;DHT22;32071;49.036;9.344;2024-03-06T08:28:20;6.50;99.90
46364;DHT22;32071;49.036;9.344;2024-03-06T08:30:46;6.50;99.90
46364;DHT22;32071;49.036;9.344;2024-03-06T08:33:12;6.50;99.90
46364;DHT22;32071;49.036;9.344;2024-03-06T08:35:38;6.50;99.90
46364;DHT22;32071;49.036;9.344;2024-03-06T08:38:04;6.50;99.90
46364;DHT22;32071;49.036;9.344;2024-03-06T08:40:31;6.50;99.90
46364;DHT22;32071;49.036;9.344;2024-03-06T08:42:57;6.50;99.90
46364;DHT22;32071;49.036;9.344;2024-03-06T08:45:22;6.60;99.90
46364;DHT22;32071;49.036;9.344;2024-03-06T08:47:51;6.50;99.90
46364;DHT22;32071;49.036;9.344;2024-03-06T08:50:20;6.50;99.90
46364;DHT22;32071;49.036;9.344;2024-03-06T08:52:46;6.50;99.90
46364;DHT22;32071;49.036;9.344;2024-03-06T08:55:12;6.60;99.90
46364;DHT22;32071;49.036;9.344;2024-03-06T08:57:38;6.60;99.90
46364;DHT22;32071;49.036;9.344;2024-03-06T09:00:05;6.60;99.90
46364;DHT22;32071;49.036;9.344;2024-03-06T09:02:38;6.50;99.90
46364;DHT22;32071;49.036;9.344;2024-03-06T09:05:07;6.50;99.90
46364;DHT22;32071;49.036;9.344;2024-03-06T09:07:35;6.50;99.90
46364;DHT22;32071;49.036;9.344;2024-03-06T09:10:06;6.50;99.90
46364;DHT22;32071;49.036;9.344;2024-03-06T09:12:32;6.60;99.90
46364;DHT22;32071;49.036;9.344;2024-03-06T09:14:58;6.70;99.90
46364;DHT22;32071;49.036;9.344;2024-03-06T09:17:25;6.70;99.90
46364;DHT22;32071;49.036;9.344;2024-03-06T09:19:51;6.80;99.90
46364;DHT22;32071;49.036;9.344;2024-03-06T09:22:17;6.90;99.90
46364;DHT22;32071;49.036;9.344;2024-03-06T09:24:43;7.00;99.90
46364;DHT22;32071;49.036;9.344;2024-03-06T09:27:09;7.10;99.90
46364;DHT22;32071;49.036;9.344;2024-03-06T09:29:34;7.10;99.90
46364;DHT22;32071;49.036;9.344;2024-03-06T09:32:00;7.10;99.90
46364;DHT22;32071;49.036;9.344;2024-03-06T09:34:26;7.10;99.90
46364;DHT22;32071;49.036;9.344;2024-03-06T09:36:51;7.00;99.90
46364;DHT22;32071;49.036;9.344;2024-03-06T09:39:19;7.00;99.90
46364;DHT22;32071;49.036;9.344;2024-03-06T09:41:51;7.00;99.90
46364;DHT22;32071;49.036;9.344;2024-03-06T09:44:18;7.10;99.90
46364;DHT22;32071;49.036;9.344;2024-03-06T09:46:45;7.10;99.90
46364;DHT22;32071;49.036;9.344;2024-03-06T09:49:12;7.10;99.90
46364;DHT22;32071;49.036;9.344;2024-03-06T09:51:47;7.20;99.90
46364;DHT22;32071;49.036;9.344;2024-03-06T09:54:16;7.30;99.90
46364;DHT22;32071;49.036;9.344;2024-03-06T09:56:42;7.40;99.90
46364;DHT22;32071;49.036;9.344;2024-03-06T09:59:09;7.50;99.90
46364;DHT22;32071;49.036;9.344;2024-03-06T10:01:45;7.50;99.90
46364;DHT22;32071;49.036;9.344;2024-03-06T10:04:23;7.40;99.90
46364;DHT22;32071;49.036;9.344;2024-03-06T10:06:50;7.40;99.90
46364;DHT22;32071;49.036;9.344;2024-03-06T10:09:20;7.50;99.90
46364;DHT22;32071;49.036;9.344;2024-03-06T10:11:47;7.60;99.90
46364;DHT22;32071;49.036;9.344;2024-03-06T10:14:13;7.70;99.90
46364;DHT22;32071;49.036;9.344;2024-03-06T10:16:57;7.70;99.90
46364;DHT22;32071;49.036;9.344;2024-03-06T10:19:27;7.70;99.90
46364;DHT22;32071;49.036;9.344;2024-03-06T10:21:54;7.70;99.90
46364;DHT22;32071;49.036;9.344;2024-03-06T10:24:25;7.70;99.90
46364;DHT22;32071;49.036;9.344;2024-03-06T10:26:52;7.80;99.90
46364;DHT22;32071;49.036;9.344;2024-03-06T10:29:21;7.90;99.90
46364;DHT22;32071;49.036;9.344;2024-03-06T10:31:57;8.00;99.90
46364;DHT22;32071;49.036;9.344;2024-03-06T10:34:27;8.10;99.90
46364;DHT22;32071;49.036;9.344;2024-03-06T10:36:57;8.20;99.90
46364;DHT22;32071;49.036;9.344;2024-03-06T10:39:24;8.20;99.90
46364;DHT22;32071;49.036;9.344;2024-03-06T10:41:56;8.10;99.90
46364;DHT22;32071;49.036;9.344;2024-03-06T10:44:24;8.00;99.90
46364;DHT22;32071;49.036;9.344;2024-03-06T10:47:11;8.00;99.90
46364;DHT22;32071;49.036;9.344;2024-03-06T10:49:38;8.10;99.90
46364;DHT22;32071;49.036;9.344;2024-03-06T10:52:05;8.10;99.90
46364;DHT22;32071;49.036;9.344;2024-03-06T10:54:34;8.10;99.90
46364;DHT22;32071;49.036;9.344;2024-03-06T10:57:00;8.20;99.90
46364;DHT22;32071;49.036;9.344;2024-03-06T10:59:27;8.20;99.90
46364;DHT22;32071;49.036;9.344;2024-03-06T11:01:57;8.30;99.90
46364;DHT22;32071;49.036;9.344;2024-03-06T11:04:27;8.40;99.90
46364;DHT22;32071;49.036;9.344;2024-03-06T11:06:55;8.30;99.90
46364;DHT22;32071;49.036;9.344;2024-03-06T11:09:20;8.30;99.90
46364;DHT22;32071;49.036;9.344;2024-03-06T11:11:50;8.30;99.90
46364;DHT22;32071;49.036;9.344;2024-03-06T11:14:17;8.30;99.90
46364;DHT22;32071;49.036;9.344;2024-03-06T11:19:28;8.40;99.90
46364;DHT22;32071;49.036;9.344;2024-03-06T11:21:54;8.40;99.90
46364;DHT22;32071;49.036;9.344;2024-03-06T11:24:22;8.40;99.90
46364;DHT22;32071;49.036;9.344;2024-03-06T11:26:49;8.20;99.90
46364;DHT22;32071;49.036;9.344;2024-03-06T11:29:18;8.20;99.90
46364;DHT22;32071;49.036;9.344;2024-03-06T11:32:03;8.20;99.90
46364;DHT22;32071;49.036;9.344;2024-03-06T11:34:29;8.20;99.90
46364;DHT22;32071;49.036;9.344;2024-03-06T11:36:58;8.20;99.90
46364;DHT22;32071;49.036;9.344;2024-03-06T11:39:27;8.20;99.90
46364;DHT22;32071;49.036;9.344;2024-03-06T11:41:53;8.30;99.90
46364;DHT22;32071;49.036;9.344;2024-03-06T11:44:22;8.30;99.90
46364;DHT22;32071;49.036;9.344;2024-03-06T11:46:56;8.40;99.90
46364;DHT22;32071;49.036;9.344;2024-03-06T11:49:32;8.40;99.90
46364;DHT22;32071;49.036;9.344;2024-03-06T11:52:04;8.40;99.90
46364;DHT22;32071;49.036;9.344;2024-03-06T11:54:31;8.40;99.90
46364;DHT22;32071;49.036;9.344;2024-03-06T11:56:59;8.50;99.90
46364;DHT22;32071;49.036;9.344;2024-03-06T11:59:29;8.50;99.90
46364;DHT22;32071;49.036;9.344;2024-03-06T12:01:56;8.50;99.90
46364;DHT22;32071;49.036;9.344;2024-03-06T12:04:22;8.50;99.90
46364;DHT22;32071;49.036;9.344;2024-03-06T12:06:48;8.50;99.90
46364;DHT22;32071;49.036;9.344;2024-03-06T12:09:14;8.50;99.90
46364;DHT22;32071;49.036;9.344;2024-03-06T12:11:41;8.40;99.90
46364;DHT22;32071;49.036;9.344;2024-03-06T12:14:19;8.30;99.90
46364;DHT22;32071;49.036;9.344;2024-03-06T12:16:59;8.40;99.90
46364;DHT22;32071;49.036;9.344;2024-03-06T12:19:28;8.30;99.90
46364;DHT22;32071;49.036;9.344;2024-03-06T12:21:59;8.20;99.90
46364;DHT22;32071;49.036;9.344;2024-03-06T12:24:25;8.20;99.90
46364;DHT22;32071;49.036;9.344;2024-03-06T12:27:00;8.20;99.90
46364;DHT22;32071;49.036;9.344;2024-03-06T12:29:29;8.20;99.90
46364;DHT22;32071;49.036;9.344;2024-03-06T12:31:56;8.20;99.90
46364;DHT22;32071;49.036;9.344;2024-03-06T12:34:22;8.20;99.90
46364;DHT22;32071;49.036;9.344;2024-03-06T12:36:48;8.20;99.90
46364;DHT22;32071;49.036;9.344;2024-03-06T12:39:15;8.30;99.90
46364;DHT22;32071;49.036;9.344;2024-03-06T12:41:43;8.30;99.90
46364;DHT22;32071;49.036;9.344;2024-03-06T12:44:09;8.40;99.90
46364;DHT22;32071;49.036;9.344;2024-03-06T12:46:34;8.40;99.90
46364;DHT22;32071;49.036;9.344;2024-03-06T12:49:00;8.40;99.90
46364;DHT22;32071;49.036;9.344;2024-03-06T12:51:26;8.40;99.90
46364;DHT22;32071;49.036;9.344;2024-03-06T12:53:52;8.40;99.90
46364;DHT22;32071;49.036;9.344;2024-03-06T12:56:18;8.30;99.90
46364;DHT22;32071;49.036;9.344;2024-03-06T12:58:44;8.30;99.90
46364;DHT22;32071;49.036;9.344;2024-03-06T13:01:10;8.20;99.90
46364;DHT22;32071;49.036;9.344;2024-03-06T13:03:36;8.10;99.90
46364;DHT22;32071;49.036;9.344;2024-03-06T13:06:02;8.00;99.90
46364;DHT22;32071;49.036;9.344;2024-03-06T13:08:28;8.00;99.90
46364;DHT22;32071;49.036;9.344;2024-03-06T13:10:54;8.00;99.90
46364;DHT22;32071;49.036;9.344;2024-03-06T13:13:19;8.00;99.90
46364;DHT22;32071;49.036;9.344;2024-03-06T13:15:45;8.00;99.90
46364;DHT22;32071;49.036;9.344;2024-03-06T13:18:14;8.00;99.90
46364;DHT22;32071;49.036;9.344;2024-03-06T13:20:39;8.00;99.90
46364;DHT22;32071;49.036;9.344;2024-03-06T13:23:05;7.90;99.90
46364;DHT22;32071;49.036;9.344;2024-03-06T13:25:31;7.90;99.90
46364;DHT22;32071;49.036;9.344;2024-03-06T13:27:57;7.90;99.90
46364;DHT22;32071;49.036;9.344;2024-03-06T13:30:22;7.90;99.90
46364;DHT22;32071;49.036;9.344;2024-03-06T13:32:50;7.80;99.90
46364;DHT22;32071;49.036;9.344;2024-03-06T13:35:15;7.80;99.90
46364;DHT22;32071;49.036;9.344;2024-03-06T13:37:42;7.80;99.90
46364;DHT22;32071;49.036;9.344;2024-03-06T13:40:09;7.80;99.90
46364;DHT22;32071;49.036;9.344;2024-03-06T13:42:36;7.80;99.90
46364;DHT22;32071;49.036;9.344;2024-03-06T13:45:03;7.80;99.90
46364;DHT22;32071;49.036;9.344;2024-03-06T13:47:29;7.80;99.90
46364;DHT22;32071;49.036;9.344;2024-03-06T13:49:55;7.90;99.90
46364;DHT22;32071;49.036;9.344;2024-03-06T13:52:21;7.90;99.90
46364;DHT22;32071;49.036;9.344;2024-03-06T13:54:47;7.90;99.90
46364;DHT22;32071;49.036;9.344;2024-03-06T13:57:16;7.90;99.90
46364;DHT22;32071;49.036;9.344;2024-03-06T13:59:42;8.00;99.90
46364;DHT22;32071;49.036;9.344;2024-03-06T14:02:08;8.00;99.90
46364;DHT22;32071;49.036;9.344;2024-03-06T14:04:34;8.10;99.90
46364;DHT22;32071;49.036;9.344;2024-03-06T14:07:00;8.20;99.90
46364;DHT22;32071;49.036;9.344;2024-03-06T14:09:26;8.30;99.90
46364;DHT22;32071;49.036;9.344;2024-03-06T14:11:53;8.40;99.90
46364;DHT22;32071;49.036;9.344;2024-03-06T14:14:19;8.30;99.90
46364;DHT22;32071;49.036;9.344;2024-03-06T14:16:45;8.40;99.90
46364;DHT22;32071;49.036;9.344;2024-03-06T14:19:11;8.40;99.90
46364;DHT22;32071;49.036;9.344;2024-03-06T14:21:37;8.30;99.90
46364;DHT22;32071;49.036;9.344;2024-03-06T14:24:03;8.40;99.90
46364;DHT22;32071;49.036;9.344;2024-03-06T14:26:30;8.40;99.90
46364;DHT22;32071;49.036;9.344;2024-03-06T14:28:56;8.30;99.90
46364;DHT22;32071;49.036;9.344;2024-03-06T14:31:22;8.40;99.90
46364;DHT22;32071;49.036;9.344;2024-03-06T14:33:48;8.40;99.90
46364;DHT22;32071;49.036;9.344;2024-03-06T14:36:14;8.50;99.90
46364;DHT22;32071;49.036;9.344;2024-03-06T14:38:40;8.50;99.90
46364;DHT22;32071;49.036;9.344;2024-03-06T14:41:05;8.50;99.90
46364;DHT22;32071;49.036;9.344;2024-03-06T14:43:35;8.50;99.90
46364;DHT22;32071;49.036;9.344;2024-03-06T14:46:04;8.50;99.90
46364;DHT22;32071;49.036;9.344;2024-03-06T14:48:29;8.50;99.90
46364;DHT22;32071;49.036;9.344;2024-03-06T14:50:55;8.50;99.90
46364;DHT22;32071;49.036;9.344;2024-03-06T14:53:20;8.50;99.90
46364;DHT22;32071;49.036;9.344;2024-03-06T14:55:46;8.50;99.90
46364;DHT22;32071;49.036;9.344;2024-03-06T14:58:12;8.60;99.90
46364;DHT22;32071;49.036;9.344;2024-03-06T15:00:37;8.50;99.90
46364;DHT22;32071;49.036;9.344;2024-03-06T15:03:03;8.60;99.90
46364;DHT22;32071;49.036;9.344;2024-03-06T15:05:28;8.60;99.90
46364;DHT22;32071;49.036;9.344;2024-03-06T15:07:57;8.60;99.90
46364;DHT22;32071;49.036;9.344;2024-03-06T15:10:23;8.60;99.90
46364;DHT22;32071;49.036;9.344;2024-03-06T15:12:49;8.60;99.90
46364;DHT22;32071;49.036;9.344;2024-03-06T15:15:14;8.60;99.90
46364;DHT22;32071;49.036;9.344;2024-03-06T15:17:40;8.60;99.90
46364;DHT22;32071;49.036;9.344;2024-03-06T15:20:07;8.60;99.90
46364;DHT22;32071;49.036;9.344;2024-03-06T15:22:36;8.50;99.90
46364;DHT22;32071;49.036;9.344;2024-03-06T15:25:07;8.50;99.90
46364;DHT22;32071;49.036;9.344;2024-03-06T15:27:34;8.50;99.90
46364;DHT22;32071;49.036;9.344;2024-03-06T15:30:01;8.50;99.90
46364;DHT22;32071;49.036;9.344;2024-03-06T15:32:27;8.40;99.90
46364;DHT22;32071;49.036;9.344;2024-03-06T15:34:52;8.40;99.90
46364;DHT22;32071;49.036;9.344;2024-03-06T15:37:22;8.40;99.90
46364;DHT22;32071;49.036;9.344;2024-03-06T15:39:53;8.30;99.90
46364;DHT22;32071;49.036;9.344;2024-03-06T15:42:20;8.30;99.90
46364;DHT22;32071;49.036;9.344;2024-03-06T15:44:47;8.30;99.90